Time;durP1;ratioP1;P1;durP2;ratioP2;P2;SDS_P1;SDS_P2;PMS_P1;PMS_P2;Temp;Humidity;BMP_temperature;BMP_pressure;BME280_temperature;BME280_humidity;BME280_pressure;Samples;Min_cycle;Max_cycle;Signal;HPM_P1;HPM_P2
2023/04/28 00:00:49;;;;;;;11.48;6.28;;;11.40;99.90;;;;;;4167963;28;20413;-64
2023/04/28 00:02:51;;;;;;;12.75;6.97;;;11.40;99.90;;;;;;4164443;28;20037;-64
2023/04/28 00:04:51;;;;;;;9.82;6.28;;;11.30;99.90;;;;;;4175756;28;20041;-62
2023/04/28 00:06:52;;;;;;;8.15;5.75;;;11.30;99.90;;;;;;4172372;28;20507;-64
2023/04/28 00:08:53;;;;;;;11.20;6.88;;;11.40;99.90;;;;;;4185189;28;20037;-65
2023/04/28 00:10:53;;;;;;;7.80;5.72;;;11.40;99.90;;;;;;4175542;28;20076;-64
2023/04/28 00:12:54;;;;;;;8.85;5.85;;;11.50;99.90;;;;;;4170229;28;20029;-64
2023/04/28 00:14:55;;;;;;;11.10;6.10;;;11.50;99.90;;;;;;4177234;28;20061;-64
2023/04/28 00:16:58;;;;;;;10.48;6.38;;;11.50;99.90;;;;;;4180651;28;20110;-65
2023/04/28 00:18:58;;;;;;;;;;;11.60;99.90;;;;;;4178144;28;20032;-64
2023/04/28 00:21:00;;;;;;;9.20;6.25;;;11.60;99.90;;;;;;4177582;28;19956;-64
2023/04/28 00:23:01;;;;;;;11.43;7.43;;;11.60;99.90;;;;;;4185681;28;20033;-64
2023/04/28 00:25:05;;;;;;;11.30;7.05;;;11.50;99.90;;;;;;4158866;28;20041;-63
2023/04/28 00:27:08;;;;;;;10.23;6.68;;;11.40;99.90;;;;;;4170749;28;20033;-64
2023/04/28 00:29:09;;;;;;;9.52;6.40;;;11.40;99.90;;;;;;4191115;28;20211;-64
2023/04/28 00:31:14;;;;;;;10.70;6.55;;;11.50;99.90;;;;;;4174551;28;20068;-66
2023/04/28 00:33:15;;;;;;;11.80;6.72;;;11.50;99.90;;;;;;4186193;28;20400;-64
2023/04/28 00:35:16;;;;;;;12.32;7.35;;;11.50;99.90;;;;;;4194018;28;20079;-62
2023/04/28 00:37:22;;;;;;;10.45;7.13;;;11.40;99.90;;;;;;4180677;28;20087;-64
2023/04/28 00:39:24;;;;;;;10.60;6.47;;;11.30;99.90;;;;;;4190782;28;20467;-64
2023/04/28 00:41:25;;;;;;;11.40;6.38;;;11.40;99.90;;;;;;4184714;28;20033;-64
2023/04/28 00:43:25;;;;;;;9.98;6.57;;;11.40;99.90;;;;;;4177469;28;20729;-64
2023/04/28 00:45:26;;;;;;;10.55;6.38;;;11.40;99.90;;;;;;4188902;28;20037;-64
2023/04/28 00:47:27;;;;;;;9.18;6.30;;;11.50;99.90;;;;;;4174927;28;20060;-64
2023/04/28 00:49:37;;;;;;;10.80;6.65;;;11.60;99.90;;;;;;4183674;28;20493;-64
2023/04/28 00:51:38;;;;;;;9.48;6.38;;;11.60;99.90;;;;;;4169787;28;20025;-64
2023/04/28 00:53:39;;;;;;;10.07;6.70;;;11.60;99.90;;;;;;4179404;28;20040;-64
2023/04/28 00:55:40;;;;;;;10.27;6.68;;;11.60;99.90;;;;;;4179834;28;20036;-67
2023/04/28 00:57:41;;;;;;;8.23;6.03;;;11.70;99.90;;;;;;4178837;28;20491;-64
2023/04/28 00:59:42;;;;;;;9.10;6.47;;;11.70;99.90;;;;;;4159791;28;20034;-64
2023/04/28 01:01:43;;;;;;;11.02;6.97;;;11.80;99.90;;;;;;4175222;23;20053;-66
2023/04/28 01:03:47;;;;;;;9.10;6.75;;;11.90;99.90;;;;;;4145836;28;20080;-66
2023/04/28 01:05:48;;;;;;;8.70;6.15;;;11.90;99.90;;;;;;4169304;28;20040;-66
2023/04/28 01:07:48;;;;;;;11.05;6.97;;;11.90;99.90;;;;;;4177456;28;20079;-66
2023/04/28 01:09:51;;;;;;;9.55;6.50;;;12.00;99.90;;;;;;4156033;28;20045;-67
2023/04/28 01:11:52;;;;;;;13.10;7.53;;;11.90;99.90;;;;;;4171385;28;20155;-66
2023/04/28 01:13:53;;;;;;;11.98;7.63;;;11.90;99.90;;;;;;4173926;28;20021;-66
2023/04/28 01:15:56;;;;;;;12.18;7.40;;;11.90;99.90;;;;;;4168792;28;20510;-66
2023/04/28 01:17:57;;;;;;;13.82;7.78;;;11.80;99.90;;;;;;4175190;28;20397;-67
2023/04/28 01:19:57;;;;;;;16.25;7.60;;;11.80;99.90;;;;;;4176923;28;20021;-66
2023/04/28 01:21:58;;;;;;;11.68;7.45;;;11.80;99.90;;;;;;4172392;28;20029;-66
2023/04/28 01:23:59;;;;;;;11.07;6.68;;;11.80;99.90;;;;;;4176864;28;20025;-66
2023/04/28 01:26:00;;;;;;;10.30;6.53;;;11.80;99.90;;;;;;4176341;28;20041;-66
2023/04/28 01:28:01;;;;;;;12.75;7.97;;;11.80;99.90;;;;;;4175887;28;20052;-66
2023/04/28 01:30:02;;;;;;;11.30;6.80;;;11.80;99.90;;;;;;4175747;28;20033;-66
2023/04/28 01:32:02;;;;;;;9.10;6.63;;;11.90;99.90;;;;;;4174140;28;20401;-67
2023/04/28 01:34:03;;;;;;;9.50;6.80;;;11.90;99.90;;;;;;4175455;28;20029;-68
2023/04/28 01:36:04;;;;;;;10.23;7.13;;;12.00;99.90;;;;;;4175376;28;20518;-66
2023/04/28 01:38:04;;;;;;;10.15;7.07;;;12.00;99.90;;;;;;4175661;28;20033;-66
2023/04/28 01:40:05;;;;;;;9.43;7.20;;;12.00;99.90;;;;;;4175852;28;20039;-66
2023/04/28 01:42:06;;;;;;;11.77;7.85;;;12.00;99.90;;;;;;4175758;28;20091;-66
2023/04/28 01:44:07;;;;;;;11.05;7.50;;;12.00;99.90;;;;;;4174135;28;20045;-66
2023/04/28 01:46:07;;;;;;;11.25;7.55;;;12.00;99.90;;;;;;4173987;28;20036;-66
2023/04/28 01:48:08;;;;;;;12.98;8.50;;;12.00;99.90;;;;;;4170634;28;20037;-66
2023/04/28 01:50:09;;;;;;;12.57;8.23;;;11.80;99.90;;;;;;4176254;28;20038;-66
2023/04/28 01:52:10;;;;;;;13.43;8.82;;;11.50;99.90;;;;;;4175764;28;20029;-68
2023/04/28 01:54:10;;;;;;;13.43;8.60;;;11.20;99.90;;;;;;4178339;28;20052;-66
2023/04/28 01:56:11;;;;;;;11.18;7.60;;;11.10;99.90;;;;;;4178043;28;20065;-66
2023/04/28 01:58:12;;;;;;;10.60;7.28;;;11.00;99.90;;;;;;4179786;28;20123;-66
2023/04/28 02:00:13;;;;;;;12.93;7.85;;;11.00;99.90;;;;;;4174255;28;20036;-66
2023/04/28 02:02:13;;;;;;;11.77;7.32;;;11.10;99.90;;;;;;4177947;28;20893;-66
2023/04/28 02:04:14;;;;;;;10.18;6.97;;;11.10;99.90;;;;;;4177938;28;20040;-66
2023/04/28 02:06:15;;;;;;;11.85;7.97;;;11.10;99.90;;;;;;4178600;28;20029;-66
2023/04/28 02:08:15;;;;;;;12.38;7.35;;;11.20;99.90;;;;;;4179681;28;20440;-66
2023/04/28 02:10:16;;;;;;;10.23;7.07;;;11.20;99.90;;;;;;4177912;28;20033;-66
2023/04/28 02:12:16;;;;;;;10.63;6.53;;;11.30;99.90;;;;;;4178276;28;20082;-66
2023/04/28 02:14:17;;;;;;;11.07;7.03;;;11.30;99.90;;;;;;4177831;28;20120;-66
2023/04/28 02:16:18;;;;;;;12.73;7.93;;;11.40;99.90;;;;;;4175165;28;20037;-66
2023/04/28 02:18:18;;;;;;;9.93;7.00;;;11.40;99.90;;;;;;4177117;28;20041;-66
2023/04/28 02:20:19;;;;;;;9.85;6.50;;;11.40;99.90;;;;;;4176522;28;20111;-66
2023/04/28 02:22:20;;;;;;;8.63;6.43;;;11.50;99.90;;;;;;4177349;28;20048;-66
2023/04/28 02:24:20;;;;;;;20.95;6.80;;;11.50;99.90;;;;;;4177417;28;20040;-66
2023/04/28 02:26:21;;;;;;;10.82;6.75;;;11.60;99.90;;;;;;4175899;28;20052;-67
2023/04/28 02:28:22;;;;;;;9.98;7.22;;;11.60;99.90;;;;;;4178596;28;20031;-66
2023/04/28 02:30:22;;;;;;;11.45;7.55;;;11.70;99.90;;;;;;4176553;28;20033;-66
2023/04/28 02:32:23;;;;;;;10.98;7.38;;;11.70;99.90;;;;;;4179467;28;20033;-66
2023/04/28 02:34:23;;;;;;;10.00;7.15;;;11.70;99.90;;;;;;4176655;28;20549;-66
2023/04/28 02:36:24;;;;;;;10.55;7.60;;;11.70;99.90;;;;;;4177260;28;20393;-66
2023/04/28 02:38:26;;;;;;;9.32;7.28;;;11.70;99.90;;;;;;4178255;28;20102;-66
2023/04/28 02:40:26;;;;;;;11.80;7.53;;;11.70;99.90;;;;;;4178729;28;20516;-65
2023/04/28 02:42:27;;;;;;;12.85;8.32;;;11.70;99.90;;;;;;4179361;28;20029;-63
2023/04/28 02:44:27;;;;;;;11.20;7.65;;;11.60;99.90;;;;;;4178487;28;20033;-64
2023/04/28 02:46:28;;;;;;;11.88;7.95;;;11.60;99.90;;;;;;4158015;28;20033;-66
2023/04/28 02:48:29;;;;;;;12.95;8.10;;;11.60;99.90;;;;;;4176588;28;20025;-66
2023/04/28 02:50:29;;;;;;;13.38;8.38;;;11.50;99.90;;;;;;4177156;28;20037;-66
2023/04/28 02:52:30;;;;;;;12.30;7.95;;;11.50;99.90;;;;;;4177970;28;20090;-66
2023/04/28 02:54:32;;;;;;;10.43;8.02;;;11.40;99.90;;;;;;4178592;28;20116;-66
2023/04/28 02:56:34;;;;;;;12.77;8.00;;;11.30;99.90;;;;;;4177004;28;20045;-66
2023/04/28 02:58:34;;;;;;;11.10;7.95;;;11.40;99.90;;;;;;4174572;28;20132;-66
2023/04/28 03:00:35;;;;;;;10.45;7.38;;;11.40;99.90;;;;;;4176453;28;20049;-66
2023/04/28 03:02:36;;;;;;;10.93;7.38;;;11.40;99.90;;;;;;4175715;28;20113;-65
2023/04/28 03:04:36;;;;;;;14.63;7.78;;;11.40;99.90;;;;;;4175378;28;20040;-63
2023/04/28 03:06:37;;;;;;;10.50;7.63;;;11.40;99.90;;;;;;4174763;28;20032;-63
2023/04/28 03:08:38;;;;;;;12.00;7.63;;;11.50;99.90;;;;;;4177571;28;20102;-63
2023/04/28 03:10:38;;;;;;;12.82;7.55;;;11.50;99.90;;;;;;4177790;28;20445;-64
2023/04/28 03:12:40;;;;;;;12.60;8.15;;;11.50;99.90;;;;;;4178572;28;20032;-64
2023/04/28 03:14:40;;;;;;;10.98;7.40;;;11.50;99.90;;;;;;4179924;28;20039;-65
2023/04/28 03:16:41;;;;;;;10.13;7.18;;;11.50;99.90;;;;;;4170878;28;20409;-64
2023/04/28 03:18:41;;;;;;;12.45;8.05;;;11.50;99.90;;;;;;4175239;28;20037;-64
2023/04/28 03:20:42;;;;;;;14.18;8.43;;;11.50;99.90;;;;;;4177225;28;20043;-68
2023/04/28 03:22:42;;;;;;;10.48;7.22;;;11.50;99.90;;;;;;4178114;28;21337;-64
2023/04/28 03:24:43;;;;;;;13.48;7.63;;;11.50;99.90;;;;;;4177141;28;20397;-64
2023/04/28 03:26:44;;;;;;;11.57;8.05;;;11.50;99.90;;;;;;4175631;28;20437;-66
2023/04/28 03:28:44;;;;;;;11.52;7.78;;;11.50;99.90;;;;;;4171363;28;20040;-66
2023/04/28 03:30:45;;;;;;;10.65;7.38;;;11.50;99.90;;;;;;4176922;28;20036;-63
2023/04/28 03:32:46;;;;;;;11.27;7.50;;;11.50;99.90;;;;;;4177283;28;22383;-63
2023/04/28 03:34:46;;;;;;;12.05;8.18;;;11.50;99.90;;;;;;4178118;28;20117;-63
2023/04/28 03:36:47;;;;;;;12.20;7.70;;;11.50;99.90;;;;;;4178145;28;20386;-63
2023/04/28 03:38:47;;;;;;;11.70;7.90;;;11.40;99.90;;;;;;4178128;28;20032;-63
2023/04/28 03:40:48;;;;;;;11.38;7.95;;;11.40;99.90;;;;;;4175669;28;20033;-63
2023/04/28 03:42:48;;;;;;;15.25;7.80;;;11.30;99.90;;;;;;4177131;28;20033;-63
2023/04/28 03:44:49;;;;;;;10.85;7.35;;;11.30;99.90;;;;;;4175619;28;20860;-63
2023/04/28 03:46:50;;;;;;;13.43;7.93;;;11.30;99.90;;;;;;4175982;28;20034;-64
2023/04/28 03:48:52;;;;;;;11.15;7.47;;;11.20;99.90;;;;;;4175354;28;20037;-64
2023/04/28 03:50:52;;;;;;;12.90;6.80;;;11.20;99.90;;;;;;4177165;28;20033;-63
2023/04/28 03:52:53;;;;;;;14.25;7.60;;;11.20;99.90;;;;;;4177717;28;20029;-64
2023/04/28 03:54:53;;;;;;;13.70;7.05;;;11.10;99.90;;;;;;4177158;28;20041;-63
2023/04/28 03:56:54;;;;;;;10.73;6.80;;;11.10;99.90;;;;;;4177001;28;20044;-64
2023/04/28 03:58:54;;;;;;;10.73;7.55;;;11.20;99.90;;;;;;4176590;28;20029;-63
2023/04/28 04:00:55;;;;;;;13.27;8.15;;;11.10;99.90;;;;;;4174177;28;20103;-63
2023/04/28 04:02:56;;;;;;;10.07;7.32;;;11.10;99.90;;;;;;4176916;28;20371;-63
2023/04/28 04:04:56;;;;;;;15.50;8.45;;;11.10;99.90;;;;;;4175093;28;20041;-64
2023/04/28 04:06:57;;;;;;;12.07;7.68;;;11.10;99.90;;;;;;4175936;28;20036;-64
2023/04/28 04:08:58;;;;;;;10.52;6.85;;;11.10;99.90;;;;;;4176361;28;20087;-64
2023/04/28 04:10:58;;;;;;;10.45;7.13;;;11.10;99.90;;;;;;4174743;28;20482;-64
2023/04/28 04:12:59;;;;;;;10.18;6.10;;;11.20;99.90;;;;;;4177577;28;20025;-63
2023/04/28 04:15:00;;;;;;;8.57;6.10;;;11.20;99.90;;;;;;4175855;28;20064;-64
2023/04/28 04:17:00;;;;;;;9.90;6.22;;;11.30;99.90;;;;;;4175825;28;20042;-64
2023/04/28 04:19:01;;;;;;;8.63;6.25;;;11.30;99.90;;;;;;4174252;28;20448;-64
2023/04/28 04:21:02;;;;;;;8.18;5.25;;;11.40;99.90;;;;;;4174887;28;20064;-63
2023/04/28 04:23:03;;;;;;;12.98;7.47;;;11.40;99.90;;;;;;4172213;28;20675;-63
2023/04/28 04:25:03;;;;;;;10.43;6.93;;;11.50;99.90;;;;;;4168371;28;20067;-64
2023/04/28 04:27:04;;;;;;;11.90;6.80;;;11.50;99.90;;;;;;4169849;28;20452;-64
2023/04/28 04:29:05;;;;;;;10.60;7.20;;;11.50;99.90;;;;;;4170989;28;20490;-63
2023/04/28 04:31:07;;;;;;;13.00;7.75;;;11.50;99.90;;;;;;4170709;28;20040;-66
2023/04/28 04:33:07;;;;;;;10.32;7.07;;;11.50;99.90;;;;;;4183791;28;20033;-64
2023/04/28 04:35:08;;;;;;;12.07;7.13;;;11.50;99.90;;;;;;4172769;28;20078;-64
2023/04/28 04:37:09;;;;;;;10.32;6.38;;;11.50;99.90;;;;;;4190945;28;20036;-64
2023/04/28 04:39:09;;;;;;;8.40;6.18;;;11.40;99.90;;;;;;4170300;28;20040;-63
2023/04/28 04:41:10;;;;;;;9.32;6.00;;;11.40;99.90;;;;;;4172811;28;20021;-64
2023/04/28 04:43:11;;;;;;;9.60;6.20;;;11.50;99.90;;;;;;4173843;28;20067;-63
2023/04/28 04:45:11;;;;;;;11.50;6.70;;;11.50;99.90;;;;;;4176308;28;20432;-64
2023/04/28 04:47:12;;;;;;;9.10;6.68;;;11.50;99.90;;;;;;4177019;28;20029;-63
2023/04/28 04:49:12;;;;;;;10.90;7.07;;;11.50;99.90;;;;;;4175852;28;20028;-64
2023/04/28 04:51:13;;;;;;;13.55;6.55;;;11.60;99.90;;;;;;4177757;28;20037;-63
2023/04/28 04:53:14;;;;;;;11.15;6.38;;;11.60;99.90;;;;;;4174878;28;20033;-64
2023/04/28 04:55:15;;;;;;;11.63;7.38;;;11.60;99.90;;;;;;4174374;28;20041;-63
2023/04/28 04:57:16;;;;;;;9.52;6.05;;;11.60;99.90;;;;;;4176383;28;20033;-63
2023/04/28 04:59:17;;;;;;;8.98;6.45;;;11.50;99.90;;;;;;4174044;28;20566;-63
2023/04/28 05:01:17;;;;;;;8.43;5.80;;;11.50;99.90;;;;;;4174332;28;20044;-63
2023/04/28 05:03:18;;;;;;;9.23;5.82;;;11.60;99.90;;;;;;4171234;28;20120;-63
2023/04/28 05:05:21;;;;;;;7.13;5.00;;;11.60;99.90;;;;;;4168441;28;20049;-63
2023/04/28 05:07:22;;;;;;;9.75;5.63;;;11.60;99.90;;;;;;4172366;28;20033;-71
2023/04/28 05:09:22;;;;;;;12.85;5.85;;;11.60;99.90;;;;;;4172711;28;20520;-71
2023/04/28 05:11:23;;;;;;;7.03;4.88;;;11.70;99.90;;;;;;4168941;28;20428;-71
2023/04/28 05:13:24;;;;;;;8.60;4.93;;;11.70;99.90;;;;;;4170548;28;20450;-71
2023/04/28 05:15:25;;;;;;;6.53;4.82;;;11.70;99.90;;;;;;4169548;28;20616;-71
2023/04/28 05:17:25;;;;;;;5.78;4.50;;;11.70;99.90;;;;;;4172808;28;20632;-71
2023/04/28 05:19:26;;;;;;;8.13;5.18;;;11.70;99.90;;;;;;4171773;28;20025;-71
2023/04/28 05:21:27;;;;;;;10.48;5.75;;;11.80;99.90;;;;;;4171786;28;20087;-71
2023/04/28 05:23:28;;;;;;;6.60;4.72;;;11.80;99.90;;;;;;4167001;28;20091;-72
2023/04/28 05:25:28;;;;;;;6.68;4.50;;;11.80;99.90;;;;;;4171665;28;20432;-69
2023/04/28 05:27:29;;;;;;;7.88;4.63;;;11.90;99.90;;;;;;4170990;28;20025;-71
2023/04/28 05:29:30;;;;;;;8.88;5.43;;;11.90;99.90;;;;;;4169487;28;20033;-71
2023/04/28 05:31:31;;;;;;;10.98;5.50;;;11.90;99.90;;;;;;4169172;28;20596;-72
2023/04/28 05:33:31;;;;;;;9.25;5.20;;;11.90;99.90;;;;;;4168657;28;20036;-71
2023/04/28 05:35:33;;;;;;;7.75;4.97;;;12.00;99.90;;;;;;4168579;28;20472;-71
2023/04/28 05:37:33;;;;;;;11.52;6.10;;;12.00;99.90;;;;;;4168746;28;20061;-71
2023/04/28 05:39:34;;;;;;;11.25;5.57;;;12.00;99.90;;;;;;4172968;28;20533;-71
2023/04/28 05:41:35;;;;;;;11.60;6.70;;;12.00;99.90;;;;;;4169186;28;20505;-71
2023/04/28 05:43:36;;;;;;;9.77;5.72;;;12.00;99.90;;;;;;4170924;28;20032;-71
2023/04/28 05:45:37;;;;;;;10.63;5.80;;;12.00;99.90;;;;;;4168626;28;20178;-71
2023/04/28 05:47:38;;;;;;;10.82;5.65;;;11.90;99.90;;;;;;4171062;28;20037;-71
2023/04/28 05:49:38;;;;;;;8.32;5.75;;;11.90;99.90;;;;;;4169284;28;20059;-72
2023/04/28 05:51:39;;;;;;;9.20;6.05;;;11.90;99.90;;;;;;4165754;28;20051;-71
2023/04/28 05:53:39;;;;;;;8.90;5.40;;;11.90;99.90;;;;;;4170321;28;20044;-73
2023/04/28 05:55:40;;;;;;;8.10;5.07;;;11.90;99.90;;;;;;4170265;28;21075;-72
2023/04/28 05:57:41;;;;;;;9.07;5.43;;;11.90;99.90;;;;;;4168901;28;20033;-72
2023/04/28 05:59:42;;;;;;;9.93;5.80;;;11.90;99.90;;;;;;4170887;28;20041;-71
2023/04/28 06:01:43;;;;;;;6.70;5.05;;;11.90;99.90;;;;;;4167265;28;20608;-71
2023/04/28 06:03:44;;;;;;;8.30;5.63;;;11.90;99.90;;;;;;4173145;28;20044;-73
2023/04/28 06:05:44;;;;;;;7.75;5.32;;;11.90;99.90;;;;;;4167748;28;20059;-72
2023/04/28 06:07:45;;;;;;;7.07;4.93;;;11.90;99.90;;;;;;4170711;28;20041;-68
2023/04/28 06:09:46;;;;;;;9.05;5.65;;;11.90;99.90;;;;;;4170493;28;20172;-71
2023/04/28 06:11:46;;;;;;;8.73;5.20;;;11.80;99.90;;;;;;4172001;28;20518;-71
2023/04/28 06:13:48;;;;;;;6.88;5.00;;;11.80;99.90;;;;;;4170126;28;20146;-71
2023/04/28 06:15:49;;;;;;;8.32;4.95;;;11.90;99.90;;;;;;4166677;28;20063;-71
2023/04/28 06:17:50;;;;;;;7.90;4.70;;;11.90;99.90;;;;;;4172461;28;20037;-71
2023/04/28 06:19:53;;;;;;;9.13;4.95;;;11.90;99.90;;;;;;4170304;28;20447;-71
2023/04/28 06:21:53;;;;;;;10.73;5.53;;;11.90;99.90;;;;;;4171796;28;20486;-71
2023/04/28 06:23:54;;;;;;;7.18;4.93;;;11.90;99.90;;;;;;4170441;28;20162;-71
2023/04/28 06:25:55;;;;;;;8.55;4.88;;;11.90;99.90;;;;;;4171683;28;20026;-73
2023/04/28 06:27:55;;;;;;;7.03;5.22;;;11.90;99.90;;;;;;4169814;28;20025;-73
2023/04/28 06:29:56;;;;;;;8.43;5.30;;;11.90;99.90;;;;;;4169637;28;20104;-72
2023/04/28 06:31:56;;;;;;;7.03;4.82;;;12.00;99.90;;;;;;4167336;28;20175;-74
2023/04/28 06:33:57;;;;;;;8.38;4.30;;;12.00;99.90;;;;;;4172290;28;20040;-74
2023/04/28 06:35:58;;;;;;;7.07;4.90;;;12.00;99.90;;;;;;4168647;28;20379;-74
2023/04/28 06:37:58;;;;;;;9.82;5.40;;;12.10;99.90;;;;;;4171211;28;20021;-71
2023/04/28 06:39:59;;;;;;;6.40;4.45;;;12.10;99.90;;;;;;4170841;28;20037;-72
2023/04/28 06:42:01;;;;;;;5.93;4.15;;;12.10;99.90;;;;;;4171914;28;20030;-71
2023/04/28 06:44:01;;;;;;;7.47;5.03;;;12.20;99.90;;;;;;4172326;28;20397;-69
2023/04/28 06:46:02;;;;;;;7.13;4.97;;;12.20;99.90;;;;;;4169533;28;20041;-72
2023/04/28 06:48:04;;;;;;;6.43;4.80;;;12.20;99.90;;;;;;4171203;28;20037;-72
2023/04/28 06:50:05;;;;;;;7.13;4.72;;;12.30;99.90;;;;;;4171418;28;20029;-71
2023/04/28 06:52:06;;;;;;;11.13;5.90;;;12.30;99.90;;;;;;4171369;28;20040;-72
2023/04/28 06:54:07;;;;;;;6.80;4.85;;;12.20;99.90;;;;;;4174114;28;20036;-72
2023/04/28 06:56:07;;;;;;;10.90;5.32;;;12.30;99.90;;;;;;4173331;28;20025;-72
2023/04/28 06:58:08;;;;;;;8.95;4.78;;;12.30;99.90;;;;;;4171517;28;20667;-72
2023/04/28 07:00:09;;;;;;;7.45;4.60;;;12.40;99.90;;;;;;4169501;28;20557;-70
2023/04/28 07:02:11;;;;;;;11.30;4.55;;;12.40;99.90;;;;;;4171551;28;20118;-72
2023/04/28 07:04:12;;;;;;;10.35;5.15;;;12.50;99.90;;;;;;4173352;28;20132;-72
2023/04/28 07:06:12;;;;;;;7.68;4.53;;;12.50;99.90;;;;;;4170561;28;20822;-72
2023/04/28 07:08:13;;;;;;;8.52;5.13;;;12.50;99.90;;;;;;4174614;28;20493;-72
2023/04/28 07:10:14;;;;;;;10.77;5.25;;;12.50;99.90;;;;;;4171619;28;20036;-72
2023/04/28 07:12:15;;;;;;;8.77;5.55;;;12.60;99.90;;;;;;4173409;28;20048;-72
2023/04/28 07:14:15;;;;;;;11.65;5.32;;;12.60;99.90;;;;;;4167406;28;20119;-72
2023/04/28 07:16:20;;;;;;;9.57;5.38;;;12.60;99.90;;;;;;4167198;28;20037;-70
2023/04/28 07:18:20;;;;;;;9.43;5.47;;;12.60;99.90;;;;;;4173242;28;20033;-71
2023/04/28 07:20:21;;;;;;;6.25;5.25;;;12.70;99.90;;;;;;4171574;28;20043;-72
2023/04/28 07:22:22;;;;;;;8.27;5.82;;;12.70;99.90;;;;;;4171952;28;20048;-72
2023/04/28 07:24:22;;;;;;;12.52;6.75;;;12.70;99.90;;;;;;4171788;28;20076;-71
2023/04/28 07:26:23;;;;;;;9.60;5.60;;;12.80;99.90;;;;;;4171634;28;20033;-71
2023/04/28 07:28:23;;;;;;;13.73;6.50;;;12.80;99.90;;;;;;4173384;28;20033;-72
2023/04/28 07:30:25;;;;;;;9.55;5.93;;;12.80;99.90;;;;;;4169222;28;20041;-72
2023/04/28 07:32:25;;;;;;;10.85;6.28;;;12.90;99.90;;;;;;4172639;28;20064;-74
2023/04/28 07:34:26;;;;;;;7.93;5.22;;;12.90;99.90;;;;;;4172761;28;20044;-72
2023/04/28 07:36:27;;;;;;;11.73;6.65;;;13.00;99.90;;;;;;4169210;28;20033;-72
2023/04/28 07:38:28;;;;;;;9.45;5.88;;;13.00;99.90;;;;;;4171563;28;20043;-72
2023/04/28 07:40:28;;;;;;;10.82;6.13;;;13.00;99.90;;;;;;4170237;28;20037;-72
2023/04/28 07:42:29;;;;;;;9.15;5.93;;;13.00;99.90;;;;;;4172036;28;20033;-74
2023/04/28 07:44:30;;;;;;;11.45;6.15;;;13.10;99.90;;;;;;4170340;28;20038;-72
2023/04/28 07:46:31;;;;;;;9.18;5.70;;;13.00;99.90;;;;;;4170023;28;20029;-71
2023/04/28 07:48:32;;;;;;;9.93;5.28;;;13.10;99.90;;;;;;4172225;28;20163;-71
2023/04/28 07:50:33;;;;;;;12.32;6.00;;;13.20;99.90;;;;;;4171592;28;20045;-71
2023/04/28 07:52:34;;;;;;;10.10;5.88;;;13.30;99.90;;;;;;4171947;28;20029;-72
2023/04/28 07:54:35;;;;;;;10.30;6.15;;;13.30;99.90;;;;;;4172030;28;20460;-71
2023/04/28 07:56:35;;;;;;;9.45;5.65;;;13.30;99.90;;;;;;4172141;28;20064;-71
2023/04/28 07:58:36;;;;;;;6.75;5.03;;;13.40;99.90;;;;;;4171847;28;20063;-71
2023/04/28 08:00:37;;;;;;;8.00;5.20;;;13.50;99.90;;;;;;4170056;28;20048;-70
2023/04/28 08:02:38;;;;;;;9.32;5.95;;;13.50;99.90;;;;;;4169332;28;20045;-71
2023/04/28 08:04:38;;;;;;;10.40;5.88;;;13.60;99.90;;;;;;4170733;28;20044;-71
2023/04/28 08:06:39;;;;;;;9.23;5.57;;;13.60;99.90;;;;;;4167327;28;20485;-71
2023/04/28 08:08:40;;;;;;;8.65;5.60;;;13.70;99.90;;;;;;4172145;28;20037;-72
2023/04/28 08:10:42;;;;;;;9.88;6.05;;;13.70;99.90;;;;;;4171651;28;20116;-70
2023/04/28 08:12:44;;;;;;;9.07;5.60;;;13.70;99.90;;;;;;4171440;28;20044;-71
2023/04/28 08:14:44;;;;;;;11.63;6.05;;;13.80;99.90;;;;;;4172696;28;20041;-71
2023/04/28 08:16:46;;;;;;;9.48;5.78;;;13.80;99.90;;;;;;4151129;28;20705;-71
2023/04/28 08:18:47;;;;;;;9.38;5.53;;;13.70;99.90;;;;;;4172253;28;20502;-70
2023/04/28 08:20:47;;;;;;;9.68;5.32;;;13.80;99.90;;;;;;4170649;28;20387;-70
2023/04/28 08:22:48;;;;;;;8.77;5.28;;;13.80;99.90;;;;;;4172825;28;20094;-70
2023/04/28 08:24:49;;;;;;;9.82;5.32;;;13.80;99.90;;;;;;4174463;28;20040;-70
2023/04/28 08:26:50;;;;;;;7.20;4.53;;;13.80;99.90;;;;;;4170527;28;20511;-70
2023/04/28 08:28:51;;;;;;;11.13;5.70;;;13.90;99.90;;;;;;4171722;28;20032;-73
2023/04/28 08:30:54;;;;;;;8.20;5.28;;;13.90;99.90;;;;;;4171177;28;20409;-70
2023/04/28 08:32:54;;;;;;;;;;;14.00;99.90;;;;;;4172356;28;20543;-71
2023/04/28 08:34:55;;;;;;;8.82;5.10;;;14.00;99.90;;;;;;4170367;28;20003;-71
2023/04/28 08:36:56;;;;;;;8.55;4.90;;;14.10;99.90;;;;;;4167732;28;20433;-71
2023/04/28 08:38:58;;;;;;;7.63;4.95;;;14.00;99.90;;;;;;4172183;28;20550;-71
2023/04/28 08:40:58;;;;;;;11.75;5.75;;;14.00;99.90;;;;;;4170854;28;20707;-71
2023/04/28 08:42:59;;;;;;;8.38;5.95;;;14.00;99.90;;;;;;4169303;28;20520;-71
2023/04/28 08:45:02;;;;;;;9.23;5.60;;;14.00;99.90;;;;;;4168912;28;20125;-71
2023/04/28 08:47:13;;;;;;;7.60;4.80;;;14.00;99.90;;;;;;4168127;28;20044;-69
2023/04/28 08:49:15;;;;;;;8.40;5.53;;;14.10;99.90;;;;;;4167548;28;20127;-71
2023/04/28 08:51:27;;;;;;;9.52;5.63;;;14.10;99.90;;;;;;4170098;28;20100;-72
2023/04/28 08:53:29;;;;;;;7.40;5.25;;;14.10;99.90;;;;;;4168400;28;20401;-71
2023/04/28 08:55:30;;;;;;;10.60;5.75;;;14.10;99.90;;;;;;4167578;28;20126;-73
2023/04/28 08:57:57;;;;;;;12.32;5.88;;;14.20;99.90;;;;;;4167580;28;20116;-71
2023/04/28 08:59:57;;;;;;;8.82;5.75;;;14.20;99.90;;;;;;4166761;28;20048;-72
2023/04/28 09:01:59;;;;;;;10.43;6.15;;;14.30;99.90;;;;;;4167504;28;20037;-71
2023/04/28 09:04:01;;;;;;;7.35;5.35;;;14.30;99.90;;;;;;4166875;28;20037;-71
2023/04/28 09:06:02;;;;;;;8.82;5.57;;;14.40;99.90;;;;;;4167115;28;20098;-71
2023/04/28 09:08:03;;;;;;;9.73;6.28;;;14.40;99.90;;;;;;4168283;28;20424;-71
2023/04/28 09:10:21;;;;;;;8.30;5.32;;;14.50;99.90;;;;;;4168988;28;20036;-68
2023/04/28 09:12:36;;;;;;;10.18;6.22;;;14.50;99.90;;;;;;4168179;28;20036;-70
2023/04/28 09:14:37;;;;;;;11.88;6.25;;;14.50;99.90;;;;;;4171076;28;20108;-70
2023/04/28 09:16:40;;;;;;;8.93;6.28;;;14.60;99.90;;;;;;4167769;28;20108;-70
2023/04/28 09:18:56;;;;;;;8.57;6.00;;;14.60;99.90;;;;;;4167182;28;20033;-71
2023/04/28 09:21:08;;;;;;;8.48;6.32;;;14.60;99.90;;;;;;4166467;28;20063;-71
2023/04/28 09:23:16;;;;;;;9.18;5.82;;;14.60;99.90;;;;;;4165118;28;20138;-72
2023/04/28 09:25:20;;;;;;;13.65;6.75;;;14.70;99.90;;;;;;4165708;28;20056;-71
2023/04/28 09:27:26;;;;;;;10.60;6.93;;;14.80;99.90;;;;;;4168365;28;20044;-71
2023/04/28 09:29:28;;;;;;;10.18;6.70;;;14.80;99.90;;;;;;4169199;28;20422;-71
2023/04/28 09:31:28;;;;;;;12.07;6.97;;;14.80;99.90;;;;;;4164423;28;20071;-71
2023/04/28 09:33:29;;;;;;;9.30;5.70;;;14.90;99.90;;;;;;4168552;28;20660;-71
2023/04/28 09:35:47;;;;;;;11.02;6.70;;;14.90;99.90;;;;;;4166905;28;20482;-71
2023/04/28 09:37:57;;;;;;;11.60;6.38;;;14.90;99.90;;;;;;4168531;28;20032;-71
2023/04/28 09:40:04;;;;;;;9.77;6.25;;;14.90;99.90;;;;;;4164679;28;20041;-71
2023/04/28 09:42:05;;;;;;;12.52;6.95;;;15.00;99.90;;;;;;4169458;28;20040;-71
2023/04/28 09:44:10;;;;;;;15.40;7.30;;;15.00;99.90;;;;;;4165697;28;20033;-71
2023/04/28 09:46:11;;;;;;;12.52;6.80;;;14.90;99.90;;;;;;4168152;28;20139;-71
2023/04/28 09:48:12;;;;;;;9.40;5.70;;;14.90;99.90;;;;;;4148740;28;20531;-71
2023/04/28 09:50:15;;;;;;;10.95;6.15;;;15.00;99.90;;;;;;4167944;28;20036;-71
2023/04/28 09:52:16;;;;;;;12.43;7.47;;;15.00;99.90;;;;;;4167638;28;20045;-71
2023/04/28 09:54:20;;;;;;;11.13;7.70;;;15.10;99.90;;;;;;4167259;28;21168;-73
2023/04/28 09:56:24;;;;;;;13.32;6.85;;;15.10;99.90;;;;;;4168966;28;20045;-71
2023/04/28 09:58:26;;;;;;;13.05;7.47;;;15.10;99.90;;;;;;4167980;28;20037;-71
2023/04/28 10:00:27;;;;;;;8.40;5.80;;;15.00;99.90;;;;;;4169597;28;20040;-71
2023/04/28 10:02:29;;;;;;;9.18;6.72;;;15.10;99.90;;;;;;4168964;28;20052;-71
2023/04/28 10:04:32;;;;;;;10.00;5.90;;;15.10;99.90;;;;;;4166686;28;20037;-73
2023/04/28 10:06:35;;;;;;;;;;;15.10;99.90;;;;;;4166844;28;20029;-71
2023/04/28 10:08:36;;;;;;;7.82;5.63;;;15.10;99.90;;;;;;4169933;28;19916;-71
2023/04/28 10:10:37;;;;;;;10.15;6.40;;;15.10;99.90;;;;;;4169038;28;20036;-71
2023/04/28 10:12:38;;;;;;;11.52;6.50;;;15.10;99.90;;;;;;4171525;28;20029;-71
2023/04/28 10:14:41;;;;;;;8.52;5.70;;;15.20;99.90;;;;;;4172357;28;20399;-71
2023/04/28 10:16:42;;;;;;;;;;;15.20;99.90;;;;;;4169754;28;20033;-71
2023/04/28 10:18:44;;;;;;;13.73;7.82;;;15.20;99.90;;;;;;4173593;28;19944;-71
2023/04/28 10:20:47;;;;;;;8.40;6.53;;;15.10;99.90;;;;;;4170522;28;20041;-71
2023/04/28 10:22:50;;;;;;;18.80;7.35;;;15.10;99.90;;;;;;4168350;28;20041;-71
2023/04/28 10:25:11;;;;;;;11.02;7.65;;;15.10;99.90;;;;;;4170329;28;20044;-71
2023/04/28 10:27:12;;;;;;;13.15;7.55;;;15.10;99.90;;;;;;4168957;28;21291;-71
2023/04/28 10:29:13;;;;;;;12.93;7.32;;;15.00;99.90;;;;;;4170009;28;20041;-71